createdAt,value
2019-03-22T00:01:13.294Z,113721.52
2019-03-22T00:03:45.467Z,113873.32
2019-03-22T00:06:17.215Z,113579.70
2019-03-22T00:08:49.784Z,113642.69
2019-03-22T00:11:21.563Z,113769.52
2019-03-22T00:13:53.339Z,113808.61
2019-03-22T00:16:24.994Z,113857.66
2019-03-22T00:18:56.713Z,114013.91
2019-03-22T00:21:28.502Z,113995.59
2019-03-22T00:24:00.199Z,114018.97
2019-03-22T00:26:32.630Z,114454.16
2019-03-22T00:29:04.493Z,113405.73
2019-03-22T00:31:36.156Z,111431.31
2019-03-22T00:34:08.133Z,110948.33
2019-03-22T00:36:39.889Z,111601.23
2019-03-22T00:39:11.891Z,111640.09
2019-03-22T00:41:43.637Z,111607.15
2019-03-22T00:44:15.444Z,111650.77
2019-03-22T00:46:47.170Z,111525.01
2019-03-22T00:49:19.152Z,111600.64
2019-03-22T00:51:50.918Z,111448.88
2019-03-22T00:54:22.609Z,111298.98
2019-03-22T00:56:54.594Z,111207.75
2019-03-22T00:59:26.320Z,111128.77
2019-03-22T01:01:58.051Z,109212.30
2019-03-22T01:04:29.802Z,109505.03
2019-03-22T01:07:01.499Z,109836.50
2019-03-22T01:09:33.227Z,110693.58
2019-03-22T01:12:05.233Z,110891.36
2019-03-22T01:14:37.401Z,111021.64
2019-03-22T01:17:09.099Z,111330.78
2019-03-22T01:19:40.786Z,111603.95
2019-03-22T01:22:12.485Z,111927.23
2019-03-22T01:24:44.208Z,112280.48
2019-03-22T01:27:15.929Z,112439.73
2019-03-22T01:29:48.769Z,113275.70
2019-03-22T01:32:20.529Z,115004.50
2019-03-22T01:34:52.247Z,116191.42
2019-03-22T01:37:24.011Z,116245.93
2019-03-22T01:39:55.712Z,116385.57
2019-03-22T01:42:27.865Z,116692.91
2019-03-22T01:44:59.591Z,116515.87
2019-03-22T01:47:31.280Z,116841.08
2019-03-22T01:50:03.000Z,118320.43
2019-03-22T01:52:34.735Z,117790.19
2019-03-22T01:55:06.478Z,117709.28
2019-03-22T01:57:38.698Z,118179.63
2019-03-22T02:00:12.971Z,117160.63
2019-03-22T02:02:45.321Z,116826.00
2019-03-22T02:05:17.099Z,116760.27
2019-03-22T02:07:48.867Z,116929.95
2019-03-22T02:10:20.592Z,116689.56
2019-03-22T02:12:52.717Z,116583.56
2019-03-22T02:15:24.520Z,116395.59
2019-03-22T02:17:56.279Z,117346.31
2019-03-22T02:20:27.948Z,117185.33
2019-03-22T02:22:59.782Z,117365.04
2019-03-22T02:25:31.526Z,117205.45
2019-03-22T02:28:04.456Z,117203.08
2019-03-22T02:30:37.918Z,117296.93
2019-03-22T02:33:10.181Z,117359.28
2019-03-22T02:35:43.131Z,117398.11
2019-03-22T02:38:14.869Z,118565.22
2019-03-22T02:40:46.557Z,118276.61
2019-03-22T02:43:18.274Z,118049.95
2019-03-22T02:45:50.104Z,118133.90
2019-03-22T02:48:21.868Z,118519.14
2019-03-22T02:50:56.108Z,117061.02
2019-03-22T02:53:30.593Z,116903.11
2019-03-22T02:56:02.501Z,117014.06
2019-03-22T02:58:34.382Z,116860.89
2019-03-22T03:01:06.602Z,116685.64
2019-03-22T03:03:39.242Z,116171.28
2019-03-22T03:06:12.380Z,116536.79
2019-03-22T03:08:45.123Z,116750.92
2019-03-22T03:11:18.718Z,116507.58
2019-03-22T03:13:50.876Z,117070.06
2019-03-22T03:16:23.273Z,116775.10
2019-03-22T03:18:56.135Z,116572.66
2019-03-22T03:21:27.830Z,116554.16
2019-03-22T03:23:59.563Z,116079.22
2019-03-22T03:26:31.634Z,115615.09
2019-03-22T03:29:03.347Z,115429.00
2019-03-22T03:31:35.017Z,115120.83
2019-03-22T03:34:06.829Z,114931.34
2019-03-22T03:36:38.641Z,114695.23
2019-03-22T03:39:10.759Z,114528.50
2019-03-22T03:41:42.436Z,114548.96
2019-03-22T03:44:14.166Z,114499.50
2019-03-22T03:46:45.876Z,114462.05
2019-03-22T03:49:17.615Z,114842.33
2019-03-22T03:51:49.297Z,114885.67
2019-03-22T03:54:21.746Z,114947.55
2019-03-22T03:56:53.465Z,114977.83
2019-03-22T03:59:25.179Z,114771.10
2019-03-22T04:01:56.992Z,114501.23
2019-03-22T04:04:28.778Z,114745.55
2019-03-22T04:07:00.834Z,114020.98
2019-03-22T04:09:33.323Z,113590.45
2019-03-22T04:12:05.095Z,113130.05
2019-03-22T04:14:36.825Z,112612.56
2019-03-22T04:17:08.507Z,112363.48
2019-03-22T04:19:40.626Z,112120.92
2019-03-22T04:22:12.334Z,111891.18
2019-03-22T04:24:45.211Z,105376.94
2019-03-22T04:27:16.868Z,112061.80
2019-03-22T04:29:48.633Z,111804.84
2019-03-22T04:32:20.319Z,111729.28
2019-03-22T04:34:52.039Z,111686.03
2019-03-22T04:37:24.111Z,111204.27
2019-03-22T04:39:55.791Z,110987.20
2019-03-22T04:42:27.960Z,110606.80
2019-03-22T04:44:59.713Z,110409.52
2019-03-22T04:47:31.990Z,110330.97
2019-03-22T04:50:04.293Z,110312.31
2019-03-22T04:52:36.444Z,110254.80
2019-03-22T04:55:08.194Z,110274.20
2019-03-22T04:57:40.297Z,110209.60
2019-03-22T05:00:12.512Z,110209.73
2019-03-22T05:02:45.510Z,110057.45
2019-03-22T05:05:18.418Z,109922.08
2019-03-22T05:07:52.018Z,109909.84
2019-03-22T05:10:26.367Z,109755.33
2019-03-22T05:13:01.460Z,109422.97
2019-03-22T05:15:34.532Z,109115.26
2019-03-22T05:18:06.727Z,108842.68
2019-03-22T05:20:40.290Z,108763.61
2019-03-22T05:23:12.906Z,108834.77
2019-03-22T05:25:45.762Z,108743.00
2019-03-22T05:28:17.842Z,108447.23
2019-03-22T05:31:22.832Z,108295.42
2019-03-22T05:33:54.585Z,108193.02
2019-03-22T05:36:26.318Z,108010.39
2019-03-22T05:38:58.020Z,107019.54
2019-03-22T05:41:29.722Z,106692.25
2019-03-22T05:44:01.430Z,106510.70
2019-03-22T05:46:33.246Z,106057.09
2019-03-22T05:49:05.287Z,105947.72
2019-03-22T05:51:37.054Z,105906.81
2019-03-22T05:54:08.835Z,105946.45
2019-03-22T05:56:40.572Z,105970.51
2019-03-22T05:59:12.376Z,106353.01
2019-03-22T06:01:48.256Z,106118.65
2019-03-22T06:04:20.329Z,106091.38
2019-03-22T06:06:52.190Z,106195.79
2019-03-22T06:09:23.870Z,106295.23
2019-03-22T06:11:55.700Z,106263.22
2019-03-22T06:14:27.420Z,106301.83
2019-03-22T06:16:59.195Z,106272.84
2019-03-22T06:19:30.952Z,106139.07
2019-03-22T06:22:02.668Z,106105.05
2019-03-22T06:24:34.446Z,106029.45
2019-03-22T06:27:06.187Z,105878.50
2019-03-22T06:29:37.988Z,105844.27
2019-03-22T06:32:09.782Z,105769.81
2019-03-22T06:34:42.649Z,105779.25
2019-03-22T06:37:14.515Z,105631.91
2019-03-22T06:39:46.352Z,105527.27
2019-03-22T06:42:18.053Z,105529.41
2019-03-22T06:44:53.705Z,105468.89
2019-03-22T06:47:25.622Z,105609.06
2019-03-22T06:49:58.259Z,105452.11
2019-03-22T06:52:30.013Z,105386.85
2019-03-22T06:55:01.676Z,105322.70
2019-03-22T06:57:33.846Z,105256.23
2019-03-22T07:00:07.498Z,105139.47
2019-03-22T07:02:39.756Z,104985.13
2019-03-22T07:05:13.482Z,104974.97
2019-03-22T07:07:45.475Z,104951.22
2019-03-22T07:10:17.221Z,104951.50
2019-03-22T07:12:51.069Z,104886.86
2019-03-22T07:15:22.655Z,104528.39
2019-03-22T07:17:54.429Z,104213.38
2019-03-22T07:20:26.120Z,104052.05
2019-03-22T07:22:57.890Z,104251.08
2019-03-22T07:25:29.625Z,104161.72
2019-03-22T07:28:01.747Z,104023.00
2019-03-22T07:30:33.976Z,104027.42
2019-03-22T07:33:05.657Z,104032.80
2019-03-22T07:35:37.588Z,103970.83
2019-03-22T07:38:09.398Z,103951.75
2019-03-22T07:40:43.013Z,103903.55
2019-03-22T07:43:14.940Z,103914.38
2019-03-22T07:45:46.768Z,104012.02
2019-03-22T07:48:18.525Z,104004.80
2019-03-22T07:50:50.372Z,104010.56
2019-03-22T07:53:22.149Z,103998.98
2019-03-22T07:55:54.015Z,104020.14
2019-03-22T07:58:25.605Z,103994.25
2019-03-22T08:00:58.944Z,103919.70
2019-03-22T08:03:31.046Z,103924.39
2019-03-22T08:06:02.723Z,103937.47
2019-03-22T08:08:34.821Z,103941.50
2019-03-22T08:11:07.134Z,103931.97
2019-03-22T08:13:39.893Z,103680.53
2019-03-22T08:16:11.633Z,103669.83
2019-03-22T08:18:43.440Z,103719.38
2019-03-22T08:21:15.225Z,103722.52
2019-03-22T08:23:47.345Z,103711.81
2019-03-22T08:26:20.016Z,103670.75
2019-03-22T08:28:52.246Z,103725.09
2019-03-22T08:31:24.004Z,103744.28
2019-03-22T08:33:56.212Z,103706.78
2019-03-22T08:36:28.129Z,103714.69
2019-03-22T08:39:00.584Z,103733.88
2019-03-22T08:41:33.990Z,103783.08
2019-03-22T08:44:06.162Z,103767.97
2019-03-22T08:46:37.968Z,103744.39
2019-03-22T08:49:10.046Z,103751.55
2019-03-22T08:51:42.035Z,103718.59
2019-03-22T08:54:13.746Z,103558.30
2019-03-22T08:56:45.731Z,103544.09
2019-03-22T08:59:17.781Z,103494.14
2019-03-22T09:01:50.607Z,103461.14
2019-03-22T09:04:22.423Z,103447.77
2019-03-22T09:06:54.171Z,103433.02
2019-03-22T09:09:26.255Z,103367.06
2019-03-22T09:11:58.005Z,103403.56
2019-03-22T09:14:29.787Z,103443.66
2019-03-22T09:17:01.928Z,103476.66
2019-03-22T09:19:33.666Z,103480.63
2019-03-22T09:22:05.557Z,103533.17
2019-03-22T09:24:39.407Z,103559.08
2019-03-22T09:27:11.299Z,103572.48
2019-03-22T09:29:43.077Z,103595.22
2019-03-22T09:32:14.779Z,103585.44
2019-03-22T09:34:47.369Z,103609.59
2019-03-22T09:37:19.303Z,103609.20
2019-03-22T09:39:51.126Z,103559.73
2019-03-22T09:42:22.882Z,103567.72
2019-03-22T09:44:54.638Z,103518.16
2019-03-22T09:47:26.946Z,103534.25
2019-03-22T09:49:58.693Z,103517.34
2019-03-22T09:52:33.577Z,103532.02
2019-03-22T09:55:13.444Z,103520.80
2019-03-22T09:57:37.779Z,103544.96
2019-03-22T10:00:10.039Z,103568.17
2019-03-22T10:02:43.862Z,103567.33
2019-03-22T10:05:21.039Z,103578.91
2019-03-22T10:07:52.958Z,103562.37
2019-03-22T10:10:24.899Z,103589.16
2019-03-22T10:12:57.739Z,103595.87
2019-03-22T10:15:29.537Z,103570.88
2019-03-22T10:18:01.282Z,103617.30
2019-03-22T10:20:33.557Z,103616.92
2019-03-22T10:23:05.329Z,103725.80
2019-03-22T10:25:37.383Z,103688.82
2019-03-22T10:28:10.553Z,103735.26
2019-03-22T10:30:42.398Z,103708.92
2019-03-22T10:33:22.648Z,103658.91
2019-03-22T10:35:48.170Z,103674.95
2019-03-22T10:38:30.916Z,103651.31
2019-03-22T10:40:54.130Z,103672.31
2019-03-22T10:43:25.860Z,103615.08
2019-03-22T10:45:57.589Z,103612.04
2019-03-22T10:48:29.491Z,103577.20
2019-03-22T10:51:01.262Z,103536.59
2019-03-22T10:53:32.959Z,103522.77
2019-03-22T10:56:04.818Z,103539.70
2019-03-22T10:58:36.608Z,103498.20
2019-03-22T11:01:08.978Z,103522.70
2019-03-22T11:03:40.902Z,103499.52
2019-03-22T11:06:13.956Z,103470.52
2019-03-22T11:08:46.029Z,103468.30
2019-03-22T11:11:17.829Z,103456.69
2019-03-22T11:13:50.290Z,103431.67
2019-03-22T11:16:28.582Z,103425.77
2019-03-22T11:19:00.888Z,103381.08
2019-03-22T11:21:33.283Z,103327.11
2019-03-22T11:24:05.112Z,103303.79
2019-03-22T11:26:36.824Z,103300.63
2019-03-22T11:29:09.042Z,103265.34
2019-03-22T11:31:40.810Z,103271.90
2019-03-22T11:34:12.503Z,103250.47
2019-03-22T11:36:44.422Z,103221.12
2019-03-22T11:39:16.247Z,103197.37
2019-03-22T11:41:48.597Z,103199.86
2019-03-22T11:44:21.208Z,103195.43
2019-03-22T11:46:53.102Z,103169.77
2019-03-22T11:49:25.569Z,103166.19
2019-03-22T11:51:58.462Z,103165.66
2019-03-22T11:54:30.594Z,103265.33
2019-03-22T11:57:02.423Z,103235.03
2019-03-22T11:59:34.168Z,103207.34
2019-03-22T12:02:06.505Z,103182.42
2019-03-22T12:04:38.912Z,103155.55
2019-03-22T12:07:11.678Z,103150.23
2019-03-22T12:09:45.303Z,103130.92
2019-03-22T12:12:17.299Z,103104.00
2019-03-22T12:14:49.538Z,103085.70
2019-03-22T12:17:21.451Z,103055.34
2019-03-22T12:19:53.827Z,103028.71
2019-03-22T12:22:25.714Z,103003.37
2019-03-22T12:24:57.572Z,102977.07
2019-03-22T12:27:36.446Z,102955.18
2019-03-22T12:30:03.319Z,102945.63
2019-03-22T12:32:35.213Z,102920.06
2019-03-22T12:35:08.480Z,102917.63
2019-03-22T12:37:40.385Z,102888.08
2019-03-22T12:40:12.970Z,102887.92
2019-03-22T12:42:45.624Z,102873.00
2019-03-22T12:45:20.389Z,102865.88
2019-03-22T12:47:52.319Z,102858.00
2019-03-22T12:50:25.697Z,102860.13
2019-03-22T12:52:57.882Z,102856.52
2019-03-22T12:55:29.588Z,102855.76
2019-03-22T12:58:01.483Z,102846.30
2019-03-22T13:00:33.393Z,102833.63
2019-03-22T13:03:05.150Z,102830.38
2019-03-22T13:05:37.490Z,102825.95
2019-03-22T13:08:10.394Z,102815.31
2019-03-22T13:10:42.312Z,102809.08
2019-03-22T13:13:14.154Z,102814.34
2019-03-22T13:15:45.912Z,102822.13
2019-03-22T13:18:17.700Z,102808.98
2019-03-22T13:20:51.094Z,102791.70
2019-03-22T13:23:23.632Z,102785.52
2019-03-22T13:25:55.404Z,102777.73
2019-03-22T13:28:27.138Z,102768.94
2019-03-22T13:30:58.828Z,102754.80
2019-03-22T13:33:30.574Z,102748.77
2019-03-22T13:36:02.896Z,102740.64
2019-03-22T13:38:34.768Z,102737.91
2019-03-22T13:41:06.614Z,102736.34
2019-03-22T13:43:38.489Z,102723.19
2019-03-22T13:46:10.835Z,102727.41
2019-03-22T13:48:42.636Z,102710.78
2019-03-22T13:51:14.622Z,102714.34
2019-03-22T13:53:46.449Z,102718.84
2019-03-22T13:56:18.472Z,102733.98
2019-03-22T13:58:51.544Z,102740.61
2019-03-22T14:01:24.869Z,102737.20
2019-03-22T14:03:56.790Z,102736.06
2019-03-22T14:06:29.058Z,102731.83
2019-03-22T14:09:01.766Z,102724.46
2019-03-22T14:11:34.122Z,102721.55
2019-03-22T14:14:06.402Z,102716.11
2019-03-22T14:16:38.241Z,102721.98
2019-03-22T14:19:10.007Z,102714.48
2019-03-22T14:21:41.706Z,102715.92
2019-03-22T14:24:13.461Z,102714.36
2019-03-22T14:26:45.498Z,102716.69
2019-03-22T14:29:17.328Z,102721.91
2019-03-22T14:31:49.159Z,102727.03
2019-03-22T14:34:21.007Z,102724.72
2019-03-22T14:36:52.802Z,102711.98
2019-03-22T14:39:24.631Z,102706.08
2019-03-22T14:41:56.677Z,102712.97
2019-03-22T14:44:28.502Z,102709.46
2019-03-22T14:47:00.983Z,102716.83
2019-03-22T14:49:32.713Z,102710.89
2019-03-22T14:52:04.416Z,102703.81
2019-03-22T14:54:36.555Z,102700.85
2019-03-22T14:57:08.345Z,102687.58
2019-03-22T14:59:40.132Z,102678.33
2019-03-22T15:02:12.145Z,102684.37
2019-03-22T15:04:43.973Z,102684.84
2019-03-22T15:07:20.036Z,102682.06
2019-03-22T15:09:49.676Z,102680.97
2019-03-22T15:12:21.363Z,102672.39
2019-03-22T15:15:12.075Z,102658.34
2019-03-22T15:18:20.945Z,102644.27
2019-03-22T15:21:17.732Z,102660.85
2019-03-22T15:24:08.311Z,102666.46
2019-03-22T15:26:57.864Z,102666.33
2019-03-22T15:29:56.717Z,102668.97
2019-03-22T15:32:53.663Z,102649.02
2019-03-22T15:35:53.318Z,102647.20
2019-03-22T15:38:44.228Z,102646.66
2019-03-22T15:41:16.011Z,102646.71
2019-03-22T15:43:47.898Z,102644.98
2019-03-22T15:46:19.620Z,102633.88
2019-03-22T15:48:51.450Z,102634.28
2019-03-22T15:51:23.312Z,102629.75
2019-03-22T15:53:55.100Z,102617.84
2019-03-22T15:56:26.826Z,102618.77
2019-03-22T15:58:58.593Z,102616.50
2019-03-22T16:01:30.370Z,102618.37
2019-03-22T16:04:02.131Z,102609.00
2019-03-22T16:06:33.872Z,102609.91
2019-03-22T16:09:07.892Z,102609.05
2019-03-22T16:11:39.762Z,102606.46
2019-03-22T16:14:11.889Z,102602.80
2019-03-22T16:16:44.041Z,102601.90
2019-03-22T16:19:15.737Z,102593.88
2019-03-22T16:21:47.569Z,102587.77
2019-03-22T16:24:19.228Z,102592.15
2019-03-22T16:26:50.914Z,102593.64
2019-03-22T16:29:22.577Z,102596.33
2019-03-22T16:31:54.357Z,102588.74
2019-03-22T16:34:26.093Z,102581.67
2019-03-22T16:36:57.902Z,102576.34
2019-03-22T16:39:29.658Z,102578.88
2019-03-22T16:42:01.467Z,102577.69
2019-03-22T16:44:33.252Z,102583.16
2019-03-22T16:47:05.428Z,102570.63
2019-03-22T16:49:37.220Z,102566.98
2019-03-22T16:52:09.013Z,102562.52
2019-03-22T16:54:40.792Z,102559.81
2019-03-22T16:57:12.690Z,102555.21
2019-03-22T16:59:44.976Z,102548.11
2019-03-22T17:02:16.710Z,102542.02
2019-03-22T17:04:48.463Z,102551.34
2019-03-22T17:07:20.237Z,102551.39
2019-03-22T17:09:51.967Z,102547.83
2019-03-22T17:12:23.729Z,102546.97
2019-03-22T17:14:55.453Z,102546.15
2019-03-22T17:17:27.602Z,102545.77
2019-03-22T17:19:59.385Z,102562.44
2019-03-22T17:22:32.412Z,102559.74
2019-03-22T17:25:04.228Z,102563.44
2019-03-22T17:27:35.946Z,102561.38
2019-03-22T17:30:09.169Z,102565.87
2019-03-22T17:32:41.302Z,102565.97
2019-03-22T17:35:13.154Z,102576.39
2019-03-22T17:37:45.466Z,102583.77
2019-03-22T17:40:17.469Z,102602.72
2019-03-22T17:42:49.198Z,102610.91
2019-03-22T17:45:21.023Z,102624.08
2019-03-22T17:47:53.160Z,102633.22
2019-03-22T17:50:25.092Z,102657.48
2019-03-22T17:52:57.280Z,102682.66
2019-03-22T17:55:29.191Z,102702.05
2019-03-22T17:58:00.949Z,102724.09
2019-03-22T18:00:32.813Z,102757.33
2019-03-22T18:03:05.009Z,102744.41
2019-03-22T18:05:36.698Z,102753.85
2019-03-22T18:08:08.589Z,102759.26
2019-03-22T18:10:40.357Z,102763.83
2019-03-22T18:13:12.146Z,102771.05
2019-03-22T18:15:43.846Z,102780.02
2019-03-22T18:18:15.559Z,102791.73
2019-03-22T18:20:47.625Z,102792.20
2019-03-22T18:23:19.407Z,102789.61
2019-03-22T18:25:51.579Z,102794.17
2019-03-22T18:28:24.384Z,102798.73
2019-03-22T18:30:56.187Z,102809.91
2019-03-22T18:33:28.677Z,102861.91
2019-03-22T18:36:00.487Z,102864.19
2019-03-22T18:38:32.698Z,102862.88
2019-03-22T18:41:04.432Z,102854.41
2019-03-22T18:43:36.518Z,102859.41
2019-03-22T18:46:08.336Z,102857.16
2019-03-22T18:48:40.455Z,102862.52
2019-03-22T18:51:12.255Z,102854.16
2019-03-22T18:53:43.998Z,102856.40
2019-03-22T18:56:15.760Z,102843.48
2019-03-22T18:58:48.166Z,102825.13
2019-03-22T19:01:19.800Z,102756.72
2019-03-22T19:03:51.510Z,102761.24
2019-03-22T19:06:23.638Z,102764.48
2019-03-22T19:08:55.444Z,102762.27
2019-03-22T19:11:27.251Z,102764.52
2019-03-22T19:13:59.221Z,102760.99
2019-03-22T19:16:31.293Z,102754.78
2019-03-22T19:19:03.001Z,102748.20
2019-03-22T19:21:34.732Z,102748.77
2019-03-22T19:24:07.624Z,102746.58
2019-03-22T19:26:39.389Z,102750.22
2019-03-22T19:29:11.070Z,102751.13
2019-03-22T19:31:43.283Z,102752.99
2019-03-22T19:34:16.061Z,102756.14
2019-03-22T19:36:47.810Z,102748.59
2019-03-22T19:39:19.492Z,102748.61
2019-03-22T19:41:51.179Z,102751.77
2019-03-22T19:44:22.946Z,102746.38
2019-03-22T19:46:54.652Z,102738.39
2019-03-22T19:49:26.379Z,102743.80
2019-03-22T19:51:58.142Z,102738.53
2019-03-22T19:54:30.207Z,102742.17
2019-03-22T19:57:01.885Z,102743.51
2019-03-22T19:59:33.693Z,102747.59
2019-03-22T20:02:05.412Z,102742.72
2019-03-22T20:04:37.131Z,102744.55
2019-03-22T20:07:08.887Z,102745.94
2019-03-22T20:09:40.579Z,102747.75
2019-03-22T20:12:12.751Z,102747.31
2019-03-22T20:14:44.839Z,102759.26
2019-03-22T20:17:16.573Z,102758.84
2019-03-22T20:19:48.250Z,102763.36
2019-03-22T20:22:19.955Z,102770.03
2019-03-22T20:24:51.806Z,102774.05
2019-03-22T20:27:23.589Z,102777.17
2019-03-22T20:29:55.928Z,102766.06
2019-03-22T20:32:27.720Z,102774.95
2019-03-22T20:34:59.549Z,102801.31
2019-03-22T20:37:31.675Z,102794.11
2019-03-22T20:40:03.469Z,102805.72
2019-03-22T20:42:35.315Z,102796.76
2019-03-22T20:45:08.661Z,102797.19
2019-03-22T20:47:40.851Z,102795.87
2019-03-22T20:50:12.882Z,102795.34
2019-03-22T20:52:44.714Z,102793.66
2019-03-22T20:55:16.534Z,102789.62
2019-03-22T20:57:49.427Z,102787.81
2019-03-22T21:00:21.513Z,102796.76
2019-03-22T21:02:53.987Z,102792.30
2019-03-22T21:05:27.087Z,102795.44
2019-03-22T21:07:59.351Z,102810.13
2019-03-22T21:10:31.311Z,102810.13
2019-03-22T21:13:03.660Z,102806.39
2019-03-22T21:15:35.386Z,102810.84
2019-03-22T21:18:07.131Z,102807.65
2019-03-22T21:20:38.875Z,102796.92
2019-03-22T21:23:11.219Z,102779.88
2019-03-22T21:25:42.953Z,102775.86
2019-03-22T21:28:14.753Z,102770.12
2019-03-22T21:30:46.590Z,102750.08
2019-03-22T21:33:18.319Z,102732.27
2019-03-22T21:35:50.114Z,102715.37
2019-03-22T21:38:21.879Z,102704.53
2019-03-22T21:40:53.604Z,102687.23
2019-03-22T21:43:25.815Z,102667.33
2019-03-22T21:45:57.955Z,102661.59
2019-03-22T21:48:30.434Z,102664.27
2019-03-22T21:51:02.182Z,102660.75
2019-03-22T21:53:34.015Z,102658.20
2019-03-22T21:56:05.781Z,102660.48
2019-03-22T21:58:37.494Z,102663.10
2019-03-22T22:01:09.511Z,102663.10
2019-03-22T22:03:41.254Z,102668.81
2019-03-22T22:06:15.496Z,102658.97
2019-03-22T22:08:47.235Z,102660.63
2019-03-22T22:11:19.010Z,102663.66
2019-03-22T22:13:50.727Z,102652.41
2019-03-22T22:16:22.491Z,102646.52
2019-03-22T22:18:54.162Z,102639.05
2019-03-22T22:21:26.436Z,102621.03
2019-03-22T22:23:58.939Z,102602.46
2019-03-22T22:26:31.551Z,102597.84
2019-03-22T22:29:03.708Z,102582.80
2019-03-22T22:31:35.836Z,102577.50
2019-03-22T22:34:07.565Z,102575.63
2019-03-22T22:36:39.286Z,102568.39
2019-03-22T22:39:11.412Z,102568.52
2019-03-22T22:41:43.199Z,102560.83
2019-03-22T22:44:14.976Z,102563.44
2019-03-22T22:46:46.658Z,102561.73
2019-03-22T22:49:18.561Z,102555.90
2019-03-22T22:51:50.388Z,102563.34
2019-03-22T22:54:22.742Z,102562.91
2019-03-22T22:56:54.512Z,102560.16
2019-03-22T22:59:26.735Z,102552.41
2019-03-22T23:01:58.535Z,102549.40
2019-03-22T23:04:32.210Z,102539.95
2019-03-22T23:07:04.630Z,102529.83
2019-03-22T23:09:36.392Z,102524.47
2019-03-22T23:12:08.543Z,102524.07
2019-03-22T23:14:40.318Z,102524.91
2019-03-22T23:17:12.182Z,102517.91
2019-03-22T23:19:43.880Z,102521.46
2019-03-22T23:22:15.597Z,102524.58
2019-03-22T23:24:48.479Z,102522.27
2019-03-22T23:27:20.312Z,102520.55
2019-03-22T23:29:52.323Z,102521.79
2019-03-22T23:32:24.644Z,102525.01
2019-03-22T23:34:59.243Z,102521.26
2019-03-22T23:37:30.205Z,102520.39
2019-03-22T23:40:01.961Z,102526.69
2019-03-22T23:42:34.226Z,102540.45
2019-03-22T23:45:06.378Z,102533.72
2019-03-22T23:48:25.179Z,102511.84
2019-03-22T23:50:57.024Z,102555.59
2019-03-22T23:53:28.770Z,102562.73
2019-03-22T23:56:00.937Z,102572.61
2019-03-22T23:58:33.012Z,102577.06
